Terminal Aerodrome Forecast
Issued by NWS

Home | Current Version | Previous Version | Text Only | Print | Product List | Glossary On
Versions: 1 2 3 4 5 6 7 8 9 10 11 12 13 14 15 16 17 18
053
FTUS43 KDTX 221725
TAFMBS
TAF
KMBS 221725Z 2218/2318 21008KT 2SM BR BKN005 OVC020
     FM222200 21010KT 6SM HZ SCT010 OVC020
     FM230200 20008KT 4SM BR OVC015
     FM230700 20010KT 1SM BR OVC015
      TEMPO 2307/2311 1/2SM -SHRA FG OVC008
     FM231200 30010KT P6SM BKN035=

USA.gov is the U.S. government's official web portal to all federal, state and local government web resources and services.